createdAt,value
2017-10-29T00:01:23.900Z,54.22
2017-10-29T00:03:49.703Z,54.11
2017-10-29T00:06:15.475Z,54.01
2017-10-29T00:08:41.251Z,53.82
2017-10-29T00:11:07.001Z,53.82
2017-10-29T00:13:32.764Z,54.17
2017-10-29T00:15:58.529Z,54.00
2017-10-29T00:18:24.271Z,54.01
2017-10-29T00:20:50.040Z,54.71
2017-10-29T00:23:15.779Z,54.29
2017-10-29T00:25:41.540Z,54.38
2017-10-29T00:28:07.307Z,54.29
2017-10-29T00:30:33.088Z,54.83
2017-10-29T00:32:58.883Z,55.25
2017-10-29T00:35:24.632Z,55.13
2017-10-29T00:37:50.400Z,54.97
2017-10-29T00:40:16.796Z,54.61
2017-10-29T00:42:42.597Z,54.61
2017-10-29T00:45:08.474Z,54.84
2017-10-29T00:47:34.217Z,55.04
2017-10-29T00:50:00.105Z,55.44
2017-10-29T00:52:25.864Z,54.88
2017-10-29T00:54:51.652Z,54.48
2017-10-29T00:57:17.409Z,54.59
2017-10-29T00:59:43.169Z,54.84
2017-10-29T01:02:08.929Z,55.83
2017-10-29T01:04:34.724Z,55.29
2017-10-29T01:07:00.487Z,54.94
2017-10-29T01:09:26.253Z,54.70
2017-10-29T01:11:52.012Z,55.02
2017-10-29T01:14:17.817Z,55.09
2017-10-29T01:16:43.565Z,55.06
2017-10-29T01:19:09.319Z,55.63
2017-10-29T01:21:35.085Z,55.48
2017-10-29T01:24:00.841Z,55.03
2017-10-29T01:26:26.596Z,55.69
2017-10-29T01:28:52.357Z,55.46
2017-10-29T01:31:18.165Z,55.67
2017-10-29T01:33:43.926Z,55.92
2017-10-29T01:36:09.699Z,55.41
2017-10-29T01:38:35.478Z,55.90
2017-10-29T01:41:02.223Z,55.96
2017-10-29T01:43:28.024Z,55.78
2017-10-29T01:45:53.789Z,55.66
2017-10-29T01:48:19.553Z,55.61
2017-10-29T01:50:45.308Z,55.47
2017-10-29T01:53:11.092Z,55.30
2017-10-29T01:55:36.839Z,56.30
2017-10-29T01:58:02.670Z,56.25
2017-10-29T02:00:28.412Z,55.99
2017-10-29T02:02:54.163Z,55.84
2017-10-29T02:05:20.936Z,55.97
2017-10-29T02:07:47.704Z,55.92
2017-10-29T02:10:13.461Z,56.77
2017-10-29T02:12:40.179Z,56.48
2017-10-29T02:15:06.780Z,56.49
2017-10-29T02:17:32.588Z,55.36
2017-10-29T02:19:59.184Z,55.86
2017-10-29T02:22:24.950Z,56.34
2017-10-29T02:24:51.783Z,56.72
2017-10-29T02:27:18.173Z,56.77
2017-10-29T02:29:44.928Z,56.67
2017-10-29T02:32:10.681Z,56.60
2017-10-29T02:34:36.480Z,56.81
2017-10-29T02:37:03.254Z,56.78
2017-10-29T02:39:29.008Z,56.80
2017-10-29T02:41:54.760Z,56.64
2017-10-29T02:44:20.513Z,55.82
2017-10-29T02:46:46.267Z,56.88
2017-10-29T02:49:12.073Z,57.04
2017-10-29T02:51:37.835Z,57.09
2017-10-29T02:54:03.590Z,56.29
2017-10-29T02:56:29.342Z,57.21
2017-10-29T02:58:55.104Z,57.29
2017-10-29T03:01:20.849Z,56.89
2017-10-29T03:03:46.608Z,56.85
2017-10-29T03:06:12.808Z,56.66
2017-10-29T03:08:38.564Z,57.37
2017-10-29T03:11:04.323Z,56.78
2017-10-29T03:13:30.072Z,57.08
2017-10-29T03:15:56.739Z,57.28
2017-10-29T03:18:22.523Z,57.32
2017-10-29T03:20:48.265Z,57.28
2017-10-29T03:23:14.016Z,57.42
2017-10-29T03:25:39.777Z,57.59
2017-10-29T03:28:05.570Z,57.74
2017-10-29T03:30:31.341Z,57.50
2017-10-29T03:32:57.091Z,57.58
2017-10-29T03:35:23.637Z,57.54
2017-10-29T03:37:49.388Z,57.76
2017-10-29T03:40:15.146Z,57.80
2017-10-29T03:42:40.954Z,57.83
2017-10-29T03:45:07.736Z,58.01
2017-10-29T03:47:33.503Z,57.80
2017-10-29T03:50:00.379Z,57.81
2017-10-29T03:52:26.139Z,58.36
2017-10-29T03:54:51.944Z,58.00
2017-10-29T03:57:17.691Z,57.85
2017-10-29T03:59:43.432Z,57.66
2017-10-29T04:02:09.232Z,57.77
2017-10-29T04:04:34.980Z,58.03
2017-10-29T04:07:00.736Z,57.60
2017-10-29T04:09:26.490Z,56.79
2017-10-29T04:11:52.255Z,56.88
2017-10-29T04:14:18.015Z,57.03
2017-10-29T04:16:43.780Z,57.31
2017-10-29T04:19:09.578Z,58.58
2017-10-29T04:21:35.329Z,57.74
2017-10-29T04:24:01.086Z,58.02
2017-10-29T04:26:26.837Z,58.52
2017-10-29T04:28:52.595Z,58.33
2017-10-29T04:31:18.398Z,57.94
2017-10-29T04:33:44.200Z,57.89
2017-10-29T04:36:09.960Z,57.87
2017-10-29T04:38:36.739Z,57.20
2017-10-29T04:41:02.519Z,57.88
2017-10-29T04:43:28.288Z,57.76
2017-10-29T04:45:54.070Z,56.64
2017-10-29T04:48:20.648Z,57.21
2017-10-29T04:50:46.453Z,57.27
2017-10-29T04:53:12.207Z,57.49
2017-10-29T04:55:37.956Z,57.88
2017-10-29T04:58:03.699Z,57.93
2017-10-29T05:00:30.297Z,57.81
2017-10-29T05:02:56.043Z,57.43
2017-10-29T05:05:22.752Z,57.65
2017-10-29T05:07:48.492Z,57.25
2017-10-29T05:10:14.252Z,57.16
2017-10-29T05:12:40.036Z,57.17
2017-10-29T05:15:05.795Z,57.88
2017-10-29T05:17:32.567Z,57.51
2017-10-29T05:19:58.339Z,57.92
2017-10-29T05:22:25.219Z,58.15
2017-10-29T05:24:50.966Z,57.79
2017-10-29T05:27:16.765Z,56.57
2017-10-29T05:29:42.519Z,57.76
2017-10-29T05:32:09.215Z,57.30
2017-10-29T05:34:35.015Z,57.52
2017-10-29T05:37:01.425Z,57.26
2017-10-29T05:39:27.171Z,57.26
2017-10-29T05:41:53.895Z,57.45
2017-10-29T05:44:19.662Z,57.33
2017-10-29T05:46:45.466Z,57.31
2017-10-29T05:49:12.162Z,58.18
2017-10-29T05:51:37.913Z,58.55
2017-10-29T05:54:03.680Z,58.15
2017-10-29T05:56:29.431Z,58.00
2017-10-29T05:58:55.200Z,57.97
2017-10-29T06:01:20.947Z,57.49
2017-10-29T06:03:47.539Z,57.82
2017-10-29T06:06:13.292Z,58.18
2017-10-29T06:08:39.044Z,57.70
2017-10-29T06:11:04.794Z,58.62
2017-10-29T06:13:30.547Z,58.27
2017-10-29T06:15:56.290Z,57.92
2017-10-29T06:18:23.031Z,58.06
2017-10-29T06:20:49.806Z,57.90
2017-10-29T06:23:15.564Z,57.57
2017-10-29T06:25:41.327Z,57.60
2017-10-29T06:28:07.265Z,58.16
2017-10-29T06:30:33.083Z,58.57
2017-10-29T06:32:58.956Z,58.51
2017-10-29T06:35:24.716Z,58.24
2017-10-29T06:37:50.475Z,57.62
2017-10-29T06:40:16.760Z,58.22
2017-10-29T06:42:43.572Z,57.99
2017-10-29T06:45:10.457Z,58.67
2017-10-29T06:47:36.199Z,58.58
2017-10-29T06:50:02.036Z,58.72
2017-10-29T06:52:27.787Z,58.20
2017-10-29T06:54:54.417Z,57.75
2017-10-29T06:57:20.163Z,57.54
2017-10-29T06:59:45.963Z,58.11
2017-10-29T07:02:12.565Z,58.87
2017-10-29T07:04:38.318Z,57.67
2017-10-29T07:07:04.071Z,58.38
2017-10-29T07:09:29.816Z,59.16
2017-10-29T07:11:55.564Z,57.78
2017-10-29T07:14:21.319Z,58.08
2017-10-29T07:16:47.121Z,57.65
2017-10-29T07:19:13.705Z,58.15
2017-10-29T07:21:39.459Z,58.09
2017-10-29T07:24:05.211Z,58.88
2017-10-29T07:26:31.948Z,58.50
2017-10-29T07:28:57.768Z,58.61
2017-10-29T07:31:23.592Z,58.46
2017-10-29T07:33:49.344Z,57.93
2017-10-29T07:36:15.087Z,58.10
2017-10-29T07:38:41.629Z,58.22
2017-10-29T07:41:08.324Z,58.45
2017-10-29T07:43:34.088Z,58.65
2017-10-29T07:45:59.893Z,58.65
2017-10-29T07:48:25.664Z,58.14
2017-10-29T07:50:51.424Z,58.17
2017-10-29T07:53:18.147Z,58.42
2017-10-29T07:55:43.912Z,58.25
2017-10-29T07:58:09.647Z,58.66
2017-10-29T08:00:35.387Z,58.88
2017-10-29T08:03:01.176Z,58.69
2017-10-29T08:05:26.924Z,58.69
2017-10-29T08:07:53.620Z,58.53
2017-10-29T08:10:19.374Z,58.88
2017-10-29T08:12:45.127Z,59.10
2017-10-29T08:15:10.988Z,58.48
2017-10-29T08:17:36.741Z,57.80
2017-10-29T08:20:03.586Z,59.07
2017-10-29T08:22:29.388Z,57.68
2017-10-29T08:24:55.177Z,59.02
2017-10-29T08:27:21.857Z,59.08
2017-10-29T08:29:48.632Z,58.49
2017-10-29T08:32:14.375Z,58.09
2017-10-29T08:34:40.167Z,57.87
2017-10-29T08:37:05.948Z,57.53
2017-10-29T08:39:31.725Z,57.37
2017-10-29T08:41:58.258Z,58.06
2017-10-29T08:44:24.856Z,58.02
2017-10-29T08:46:51.568Z,57.18
2017-10-29T08:49:17.350Z,58.52
2017-10-29T08:51:44.080Z,58.59
2017-10-29T08:54:10.923Z,58.38
2017-10-29T08:56:37.623Z,58.15
2017-10-29T08:59:03.372Z,58.46
2017-10-29T09:01:29.976Z,58.82
2017-10-29T09:03:56.743Z,58.54
2017-10-29T09:06:22.539Z,58.47
2017-10-29T09:08:48.296Z,59.15
2017-10-29T09:11:16.031Z,58.99
2017-10-29T09:13:41.832Z,59.28
2017-10-29T09:16:07.586Z,59.35
2017-10-29T09:18:33.380Z,58.26
2017-10-29T09:20:59.155Z,58.31
2017-10-29T09:23:24.923Z,58.73
2017-10-29T09:25:50.883Z,59.33
2017-10-29T09:28:16.642Z,59.30
2017-10-29T09:30:43.363Z,59.53
2017-10-29T09:33:09.116Z,59.00
2017-10-29T09:35:35.604Z,59.31
2017-10-29T09:38:01.352Z,58.44
2017-10-29T09:40:28.133Z,58.41
2017-10-29T09:42:53.881Z,57.79
2017-10-29T09:45:19.663Z,58.44
2017-10-29T09:47:45.408Z,59.00
2017-10-29T09:50:12.216Z,57.86
2017-10-29T09:52:38.669Z,57.77
2017-10-29T09:55:05.285Z,57.84
2017-10-29T09:57:31.863Z,58.22
2017-10-29T09:59:59.587Z,56.55
2017-10-29T10:02:27.000Z,55.70
2017-10-29T10:04:53.810Z,56.04
2017-10-29T10:07:19.561Z,57.54
2017-10-29T10:09:45.317Z,57.84
2017-10-29T10:12:11.927Z,58.29
2017-10-29T10:14:38.635Z,56.65
2017-10-29T10:17:05.318Z,57.58
2017-10-29T10:19:31.073Z,56.24
2017-10-29T10:21:57.748Z,57.12
2017-10-29T10:24:23.560Z,56.61
2017-10-29T10:26:50.225Z,56.19
2017-10-29T10:29:16.957Z,56.61
2017-10-29T10:31:42.724Z,56.83
2017-10-29T10:34:08.490Z,56.21
2017-10-29T10:36:34.240Z,56.01
2017-10-29T10:39:01.022Z,55.35
2017-10-29T10:41:26.820Z,55.48
2017-10-29T10:43:53.636Z,55.79
2017-10-29T10:46:19.402Z,56.68
2017-10-29T10:48:45.188Z,56.05
2017-10-29T10:51:10.947Z,55.02
2017-10-29T10:53:37.704Z,54.93
2017-10-29T10:56:03.456Z,54.65
2017-10-29T10:58:29.929Z,54.65
2017-10-29T11:00:55.677Z,55.49
2017-10-29T11:03:21.448Z,54.62
2017-10-29T11:05:47.242Z,55.07
2017-10-29T11:08:13.891Z,54.82
2017-10-29T11:10:39.636Z,56.34
2017-10-29T11:13:05.395Z,56.68
2017-10-29T11:15:31.153Z,57.00
2017-10-29T11:17:57.756Z,55.27
2017-10-29T11:20:23.548Z,54.93
2017-10-29T11:22:49.425Z,56.00
2017-10-29T11:25:15.177Z,56.57
2017-10-29T11:27:41.063Z,55.66
2017-10-29T11:30:06.822Z,55.93
2017-10-29T11:32:32.573Z,54.97
2017-10-29T11:34:58.770Z,55.65
2017-10-29T11:37:24.525Z,55.91
2017-10-29T11:39:50.864Z,55.29
2017-10-29T11:42:16.613Z,54.73
2017-10-29T11:44:42.449Z,54.97
2017-10-29T11:47:08.195Z,55.07
2017-10-29T11:49:33.987Z,55.24
2017-10-29T11:51:59.755Z,54.61
2017-10-29T11:54:25.496Z,55.11
2017-10-29T11:56:51.275Z,55.20
2017-10-29T11:59:18.084Z,54.60
2017-10-29T12:01:43.847Z,54.33
2017-10-29T12:04:09.592Z,54.41
2017-10-29T12:06:35.331Z,55.69
2017-10-29T12:09:01.131Z,54.51
2017-10-29T12:11:26.907Z,54.59
2017-10-29T12:13:52.659Z,55.87
2017-10-29T12:16:18.448Z,54.42
2017-10-29T12:18:45.025Z,54.52
2017-10-29T12:21:10.898Z,54.42
2017-10-29T12:23:37.759Z,54.07
2017-10-29T12:26:03.534Z,54.63
2017-10-29T12:28:30.300Z,54.14
2017-10-29T12:30:57.072Z,54.02
2017-10-29T12:33:22.904Z,54.22
2017-10-29T12:35:48.655Z,54.37
2017-10-29T12:38:14.455Z,54.09
2017-10-29T12:40:40.363Z,53.70
2017-10-29T12:43:06.238Z,53.63
2017-10-29T12:45:32.909Z,54.04
2017-10-29T12:47:58.708Z,53.86
2017-10-29T12:50:25.318Z,54.59
2017-10-29T12:52:51.087Z,53.67
2017-10-29T12:55:17.774Z,53.72
2017-10-29T12:57:44.316Z,54.05
2017-10-29T13:00:10.887Z,54.11
2017-10-29T13:02:36.635Z,54.28
2017-10-29T13:05:02.455Z,53.88
2017-10-29T13:07:29.215Z,54.24
2017-10-29T13:09:55.013Z,55.25
2017-10-29T13:12:20.767Z,54.07
2017-10-29T13:14:47.375Z,54.97
2017-10-29T13:17:14.076Z,55.08
2017-10-29T13:19:39.819Z,54.60
2017-10-29T13:22:05.615Z,54.48
2017-10-29T13:24:32.346Z,55.20
2017-10-29T13:26:58.096Z,54.87
2017-10-29T13:29:24.697Z,54.29
2017-10-29T13:31:50.463Z,53.86
2017-10-29T13:34:16.248Z,55.57
2017-10-29T13:36:41.987Z,54.62
2017-10-29T13:39:08.692Z,54.34
2017-10-29T13:41:34.437Z,54.22
2017-10-29T13:44:00.189Z,54.23
2017-10-29T13:46:25.945Z,53.92
2017-10-29T13:48:52.195Z,53.40
2017-10-29T13:51:18.852Z,53.33
2017-10-29T13:53:44.592Z,53.07
2017-10-29T13:56:10.345Z,53.73
2017-10-29T13:58:36.224Z,54.64
2017-10-29T14:01:02.004Z,53.63
2017-10-29T14:03:27.875Z,53.43
2017-10-29T14:05:54.568Z,53.84
2017-10-29T14:08:21.400Z,53.68
2017-10-29T14:10:47.149Z,54.03
2017-10-29T14:13:12.896Z,54.16
2017-10-29T14:15:38.675Z,54.88
2017-10-29T14:18:05.269Z,53.70
2017-10-29T14:20:31.028Z,53.42
2017-10-29T14:22:56.839Z,53.68
2017-10-29T14:25:22.584Z,53.22
2017-10-29T14:27:49.324Z,53.18
2017-10-29T14:30:15.602Z,53.03
2017-10-29T14:32:41.367Z,53.24
2017-10-29T14:35:07.168Z,53.69
2017-10-29T14:37:32.924Z,52.88
2017-10-29T14:39:59.536Z,52.31
2017-10-29T14:42:25.284Z,52.70
2017-10-29T14:44:52.122Z,52.62
2017-10-29T14:47:17.905Z,52.90
2017-10-29T14:49:44.919Z,53.13
2017-10-29T14:52:10.720Z,53.22
2017-10-29T14:54:37.415Z,53.29
2017-10-29T14:57:04.105Z,52.58
2017-10-29T14:59:30.132Z,52.96
2017-10-29T15:01:55.875Z,52.90
2017-10-29T15:04:21.629Z,52.48
2017-10-29T15:06:47.376Z,52.75
2017-10-29T15:09:13.126Z,52.91
2017-10-29T15:11:38.895Z,52.85
2017-10-29T15:14:04.825Z,53.29
2017-10-29T15:16:30.590Z,53.21
2017-10-29T15:18:56.346Z,52.80
2017-10-29T15:21:22.181Z,53.12
2017-10-29T15:23:48.647Z,52.36
2017-10-29T15:26:14.592Z,52.17
2017-10-29T15:28:40.346Z,53.21
2017-10-29T15:31:06.118Z,52.67
2017-10-29T15:33:31.872Z,52.87
2017-10-29T15:35:57.620Z,52.83
2017-10-29T15:38:23.427Z,52.46
2017-10-29T15:40:49.201Z,52.78
2017-10-29T15:43:14.952Z,53.02
2017-10-29T15:45:40.752Z,52.90
2017-10-29T15:48:06.511Z,52.73
2017-10-29T15:50:32.264Z,54.23
2017-10-29T15:52:58.038Z,52.79
2017-10-29T15:55:24.644Z,52.42
2017-10-29T15:57:51.235Z,52.92
2017-10-29T16:00:19.561Z,52.85
2017-10-29T16:02:46.259Z,53.67
2017-10-29T16:05:13.046Z,53.04
2017-10-29T16:07:38.820Z,53.38
2017-10-29T16:10:04.569Z,53.05
2017-10-29T16:12:30.450Z,53.35
2017-10-29T16:14:56.200Z,53.13
2017-10-29T16:17:22.010Z,52.28
2017-10-29T16:19:47.776Z,54.58
2017-10-29T16:22:13.516Z,53.23
2017-10-29T16:24:39.345Z,53.72
2017-10-29T16:27:05.118Z,52.71
2017-10-29T16:29:30.880Z,53.03
2017-10-29T16:31:56.640Z,53.30
2017-10-29T16:34:22.492Z,53.72
2017-10-29T16:36:49.088Z,53.78
2017-10-29T16:39:15.267Z,52.92
2017-10-29T16:41:41.027Z,52.50
2017-10-29T16:44:07.709Z,52.02
2017-10-29T16:46:34.309Z,52.61
2017-10-29T16:49:01.057Z,52.59
2017-10-29T16:51:26.856Z,54.56
2017-10-29T16:53:52.679Z,53.59
2017-10-29T16:56:19.220Z,52.26
2017-10-29T16:58:45.957Z,53.05
2017-10-29T17:01:11.703Z,52.29
2017-10-29T17:03:38.381Z,53.24
2017-10-29T17:06:04.289Z,52.62
2017-10-29T17:08:30.079Z,52.63
2017-10-29T17:10:55.998Z,53.69
2017-10-29T17:13:23.536Z,53.31
2017-10-29T17:15:49.302Z,52.47
2017-10-29T17:18:16.071Z,52.13
2017-10-29T17:20:42.899Z,52.46
2017-10-29T17:23:08.705Z,52.23
2017-10-29T17:25:35.253Z,52.42
2017-10-29T17:28:01.004Z,53.33
2017-10-29T17:30:26.757Z,52.37
2017-10-29T17:32:52.550Z,54.04
2017-10-29T17:35:18.353Z,52.17
2017-10-29T17:37:44.117Z,51.84
2017-10-29T17:40:09.878Z,50.97
2017-10-29T17:42:35.640Z,50.59
2017-10-29T17:45:01.388Z,51.32
2017-10-29T17:47:27.177Z,50.89
2017-10-29T17:49:52.952Z,51.19
2017-10-29T17:52:19.680Z,51.13
2017-10-29T17:54:45.478Z,51.20
2017-10-29T17:57:11.296Z,50.98
2017-10-29T17:59:38.088Z,51.83
2017-10-29T18:02:04.924Z,51.50
2017-10-29T18:04:31.467Z,51.29
2017-10-29T18:06:59.773Z,51.80
2017-10-29T18:09:26.595Z,51.54
2017-10-29T18:11:53.222Z,51.99
2017-10-29T18:14:21.579Z,51.19
2017-10-29T18:16:47.625Z,51.01
2017-10-29T18:19:13.436Z,50.87
2017-10-29T18:21:44.983Z,50.92
2017-10-29T18:24:14.593Z,51.44
2017-10-29T18:26:40.572Z,52.28
2017-10-29T18:29:06.371Z,51.05
2017-10-29T18:31:33.117Z,50.85
2017-10-29T18:33:59.265Z,51.31
2017-10-29T18:36:25.084Z,51.02
2017-10-29T18:38:50.864Z,51.18
2017-10-29T18:41:17.505Z,51.76
2017-10-29T18:43:43.679Z,51.06
2017-10-29T18:46:09.484Z,52.10
2017-10-29T18:48:35.316Z,51.02
2017-10-29T18:51:01.136Z,51.08
2017-10-29T18:53:29.067Z,51.19
2017-10-29T18:55:54.987Z,51.55
2017-10-29T18:58:24.770Z,50.91
2017-10-29T19:00:50.548Z,51.29
2017-10-29T19:03:16.439Z,51.91
2017-10-29T19:05:42.216Z,50.82
2017-10-29T19:08:09.124Z,51.64
2017-10-29T19:10:34.896Z,50.84
2017-10-29T19:13:00.669Z,51.44
2017-10-29T19:15:26.483Z,51.19
2017-10-29T19:17:52.272Z,51.59
2017-10-29T19:20:18.036Z,51.08
2017-10-29T19:22:43.842Z,50.97
2017-10-29T19:25:10.625Z,52.05
2017-10-29T19:27:36.427Z,50.93
2017-10-29T19:30:02.224Z,50.96
2017-10-29T19:32:28.974Z,52.71
2017-10-29T19:34:55.806Z,51.72
2017-10-29T19:37:21.589Z,51.52
2017-10-29T19:39:47.378Z,52.36
2017-10-29T19:42:13.182Z,50.59
2017-10-29T19:44:39.035Z,50.98
2017-10-29T19:47:04.846Z,50.70
2017-10-29T19:49:31.582Z,51.26
2017-10-29T19:51:58.368Z,51.93
2017-10-29T19:54:24.162Z,52.26
2017-10-29T19:56:49.952Z,51.24
2017-10-29T19:59:15.721Z,50.77
2017-10-29T20:01:41.500Z,51.38
2017-10-29T20:04:07.272Z,52.01
2017-10-29T20:06:33.077Z,50.94
2017-10-29T20:08:58.847Z,50.92
2017-10-29T20:11:24.667Z,51.46
2017-10-29T20:13:51.960Z,51.95
2017-10-29T20:16:18.666Z,50.49
2017-10-29T20:18:45.518Z,51.45
2017-10-29T20:21:12.198Z,51.07
2017-10-29T20:23:38.906Z,51.11
2017-10-29T20:26:04.719Z,50.77
2017-10-29T20:28:30.525Z,50.64
2017-10-29T20:30:57.214Z,50.73
2017-10-29T20:33:22.985Z,50.26
2017-10-29T20:35:48.789Z,51.63
2017-10-29T20:38:14.571Z,50.89
2017-10-29T20:40:40.381Z,50.59
2017-10-29T20:43:06.162Z,50.90
2017-10-29T20:45:32.981Z,50.68
2017-10-29T20:47:58.808Z,50.44
2017-10-29T20:50:24.604Z,51.81
2017-10-29T20:52:52.145Z,50.18
2017-10-29T20:55:18.818Z,50.38
2017-10-29T20:57:45.577Z,51.29
2017-10-29T21:00:12.344Z,50.53
2017-10-29T21:02:38.143Z,50.14
2017-10-29T21:05:04.910Z,50.09
2017-10-29T21:07:30.744Z,50.31
2017-10-29T21:09:56.529Z,50.85
2017-10-29T21:12:22.338Z,50.58
2017-10-29T21:14:49.169Z,51.19
2017-10-29T21:17:14.981Z,51.80
2017-10-29T21:19:41.786Z,50.27
2017-10-29T21:22:07.626Z,50.62
2017-10-29T21:24:33.424Z,51.34
2017-10-29T21:27:00.020Z,50.72
2017-10-29T21:29:25.806Z,52.09
2017-10-29T21:31:52.619Z,51.12
2017-10-29T21:34:18.396Z,51.01
2017-10-29T21:36:44.172Z,50.71
2017-10-29T21:39:09.995Z,51.03
2017-10-29T21:41:36.715Z,51.69
2017-10-29T21:44:02.488Z,50.36
2017-10-29T21:46:29.293Z,50.65
2017-10-29T21:48:55.066Z,50.40
2017-10-29T21:51:20.877Z,51.94
2017-10-29T21:53:46.651Z,51.14
2017-10-29T21:56:13.409Z,50.68
2017-10-29T21:58:40.163Z,50.78
2017-10-29T22:01:06.872Z,50.74
2017-10-29T22:03:33.597Z,51.40
2017-10-29T22:06:00.307Z,50.21
2017-10-29T22:08:29.096Z,50.19
2017-10-29T22:10:54.872Z,51.11
2017-10-29T22:13:20.655Z,51.48
2017-10-29T22:15:47.292Z,52.55
2017-10-29T22:18:13.873Z,50.56
2017-10-29T22:20:40.610Z,51.85
2017-10-29T22:23:07.388Z,50.30
2017-10-29T22:25:33.196Z,50.86
2017-10-29T22:27:59.868Z,51.09
2017-10-29T22:30:27.535Z,51.28
2017-10-29T22:32:54.340Z,51.43
2017-10-29T22:35:20.126Z,51.08
2017-10-29T22:37:45.885Z,50.32
2017-10-29T22:40:12.464Z,50.63
2017-10-29T22:42:38.277Z,52.00
2017-10-29T22:45:04.069Z,50.13
2017-10-29T22:47:30.641Z,51.49
2017-10-29T22:49:58.132Z,50.32
2017-10-29T22:52:23.938Z,51.20
2017-10-29T22:54:49.718Z,51.21
2017-10-29T22:57:16.718Z,49.99
2017-10-29T22:59:42.494Z,50.65
2017-10-29T23:02:08.252Z,50.05
2017-10-29T23:04:34.027Z,49.82
2017-10-29T23:07:05.915Z,49.69
2017-10-29T23:09:31.676Z,49.98
2017-10-29T23:11:57.489Z,50.10
2017-10-29T23:14:23.282Z,49.51
2017-10-29T23:16:49.092Z,49.69
2017-10-29T23:19:15.844Z,49.65
2017-10-29T23:21:41.626Z,49.84
2017-10-29T23:24:07.392Z,49.96
2017-10-29T23:26:33.808Z,49.83
2017-10-29T23:28:59.573Z,49.93
2017-10-29T23:31:25.345Z,49.58
2017-10-29T23:33:51.143Z,49.95
2017-10-29T23:36:16.913Z,50.25
2017-10-29T23:38:42.717Z,51.78
2017-10-29T23:41:08.483Z,50.45
2017-10-29T23:43:34.269Z,50.19
2017-10-29T23:46:00.792Z,50.72
2017-10-29T23:48:26.585Z,49.96
2017-10-29T23:50:52.345Z,49.96
2017-10-29T23:53:18.163Z,50.73
2017-10-29T23:55:43.923Z,50.11
2017-10-29T23:58:09.678Z,50.56
